KBUFKRSW

Guest
Details From KBUF - Buffalo Niagara Intl
To KRSW - Southwest Florida Intl
Flight Number -
Tags decoded
Created
Modified
Stats Distance 996 nm / 1,845 km
Max Altitude 0 ft / 0 m
Waypoints 2
Social Downloads 0
Likes 0
Share VATSIM

Download

Looking for another format? Having issues loading an existing format? Contact us
Advertisement - Login to hide

Notes

Requested: KBUF KRSW

Route

KBUF KRSW

ID Type Via Altitude Latitude Longitude Leg Dist Tot Dist Heading (true) Name
O KBUF APT - 0 ft / 0 m 42.94049˚ -78.73061˚ - 0 nm - Buffalo Niagara Intl
O KRSW APT - 0 ft / 0 m 26.53616˚ -81.75515˚ 996 nm 996 nm 190° / 188° Southwest Florida Intl

Altitude Profile

Advertisement - Login to hide

Weather


0- 5 10 15 20 25 30 35+ Temperature / ° C

Clouds and Precipitation
Forecast for 2017-12-18 06:00 UTC. Updated 19 minutes ago

Ground ~20,000 ft ~40,000 ft Winds

KBUF

Details ICAO KBUF (BUF)
Name Buffalo Niagara Intl
Region United States
Timezone America/New_York (UTC-5.0)
Stats Elevation 724 ft / 221 m (AMSL)
Location 42.940487° -78.730606°
Runways 2
Magnetic Variation 10.715° W

METAR

KBUF 180454Z 05003KT 10SM BKN120 M04/M07 A3004 RMK AO2 SLP185 T10391067 410391072 $

Decode

TAF

TAF AMD KBUF 180313Z 1803/1824 14005KT P6SM OVC070 FM180600 21007KT P6SM OVC025 FM181500 23012G22KT 6SM -RA OVC007 FM181900 23012G22KT P6SM OVC007

Decode

Departure Runways

ID Width Length Bearing (true) Bearing (mag) Surface Threshold Offset Overrun Length
05 150 ft / 46 m 8,824 ft / 2,690 m 43.83° 54.54° Asphalt 535 ft / 163 m 0 ft / 0 m
14 150 ft / 46 m 7,153 ft / 2,180 m 126.75° 137.46° Asphalt 320 ft / 98 m 0 ft / 0 m
23 150 ft / 46 m 8,824 ft / 2,690 m 223.84° 234.55° Asphalt 726 ft / 221 m 0 ft / 0 m
32 150 ft / 46 m 7,153 ft / 2,180 m 306.77° 317.48° Asphalt 720 ft / 219 m 0 ft / 0 m

KRSW

Details ICAO KRSW (RSW)
Name Southwest Florida Intl
Region United States
Timezone America/New_York (UTC-5.0)
Stats Elevation 30 ft / 9 m (AMSL)
Location 26.536162° -81.755152°
Runways 1
Magnetic Variation 5.841° W

METAR

KRSW 180453Z 07003KT 10SM CLR 19/19 A3022 RMK AO2 SLP229 T01890189 402830144

Decode

TAF

KRSW 172327Z 1800/1824 VRB03KT P6SM SCT050 SCT250 FM180600 VRB03KT 5SM BR SCT010 SCT250 FM180900 VRB03KT 2SM BR BKN010 FM181400 12006KT P6SM SCT030 SCT250 FM182000 30005KT P6SM FEW040 SCT250

Decode

Destination Runways

ID Width Length Bearing (true) Bearing (mag) Surface Threshold Offset Overrun Length
06 150 ft / 46 m 12,004 ft / 3,659 m 53.96° 59.80° Asphalt 0 ft / 0 m 0 ft / 0 m
24 150 ft / 46 m 12,004 ft / 3,659 m 233.97° 239.81° Asphalt 0 ft / 0 m 0 ft / 0 m

Approach Navaids

Runway Type Ident Frequency Range Bearing (true) Bearing (mag) Slope Elevation
06 Localiser IRSW 111.50 MHz 18 nm / 33 km 53.97° 59.81° - 28 ft / 9 m (AMSL)
06 Glidescope IRSW 111.50 MHz 10 nm / 19 km 53.96° 59.80° 3.00° 27 ft / 8 m (AMSL)